Indian Land, South Carolina
Current Conditions -  °F | °C
As of 10:54 AM on Tuesday 21 Oct 2014 (Local Time) from KUZA Reporting Station
Clear Clear  
Wind Chill: 66°   Ceiling: Unl
Heat Index: 66°   Visibility: 10mi
Dew Point: 52°   Wind: 6mph
Humidity: 60%   Direction: NA
Pressure: 29.96"   Gusts: NA
Location:  34.9987°N, 80.9032°W
Report Text: KUZA 211454Z AUTO VRB05KT 10SM CLR 19/11 A2996 RMK AO2 SLP141 T01890111 58001
Loading
Personal Weather Stations






























Interactive Weather Map
Tropical Storm Tracking
New forecast layout! Learn more

10-Day Weather Forecast

Advertisements
Track Severe Weather on mobile